sensor_id;sensor_type;location;lat;lon;timestamp;P1;durP1;ratioP1;P2;durP2;ratioP2
53835;SDS011;39737;43.334;21.936;2022-11-03T00:01:25;50.42;;;21.45;;
53835;SDS011;39737;43.334;21.936;2022-11-03T00:04:12;43.65;;;20.08;;
53835;SDS011;39737;43.334;21.936;2022-11-03T00:06:59;52.90;;;23.70;;
53835;SDS011;39737;43.334;21.936;2022-11-03T00:09:45;46.97;;;20.58;;
53835;SDS011;39737;43.334;21.936;2022-11-03T00:12:32;48.28;;;21.40;;
53835;SDS011;39737;43.334;21.936;2022-11-03T00:15:18;27.38;;;14.63;;
53835;SDS011;39737;43.334;21.936;2022-11-03T00:18:04;45.78;;;19.80;;
53835;SDS011;39737;43.334;21.936;2022-11-03T00:20:54;38.80;;;19.75;;
53835;SDS011;39737;43.334;21.936;2022-11-03T00:23:41;49.47;;;21.98;;
53835;SDS011;39737;43.334;21.936;2022-11-03T00:26:28;49.13;;;21.73;;
53835;SDS011;39737;43.334;21.936;2022-11-03T00:29:15;57.60;;;22.60;;
53835;SDS011;39737;43.334;21.936;2022-11-03T00:32:01;51.53;;;23.02;;
53835;SDS011;39737;43.334;21.936;2022-11-03T00:34:47;56.88;;;22.88;;
53835;SDS011;39737;43.334;21.936;2022-11-03T00:37:33;33.45;;;13.48;;
53835;SDS011;39737;43.334;21.936;2022-11-03T00:40:19;52.15;;;21.48;;
53835;SDS011;39737;43.334;21.936;2022-11-03T00:43:08;43.92;;;22.08;;
53835;SDS011;39737;43.334;21.936;2022-11-03T00:45:54;56.53;;;23.02;;
53835;SDS011;39737;43.334;21.936;2022-11-03T00:48:40;31.63;;;15.27;;
53835;SDS011;39737;43.334;21.936;2022-11-03T00:51:27;59.42;;;24.48;;
53835;SDS011;39737;43.334;21.936;2022-11-03T00:54:15;51.97;;;23.33;;
53835;SDS011;39737;43.334;21.936;2022-11-03T00:57:01;55.25;;;21.98;;
53835;SDS011;39737;43.334;21.936;2022-11-03T00:59:47;48.65;;;23.10;;
53835;SDS011;39737;43.334;21.936;2022-11-03T01:02:34;48.05;;;22.67;;
53835;SDS011;39737;43.334;21.936;2022-11-03T01:05:43;63.33;;;24.80;;
53835;SDS011;39737;43.334;21.936;2022-11-03T01:08:49;54.67;;;23.48;;
53835;SDS011;39737;43.334;21.936;2022-11-03T01:11:35;52.63;;;22.27;;
53835;SDS011;39737;43.334;21.936;2022-11-03T01:14:31;54.63;;;23.80;;
53835;SDS011;39737;43.334;21.936;2022-11-03T01:17:19;46.95;;;22.00;;
53835;SDS011;39737;43.334;21.936;2022-11-03T01:20:07;58.25;;;24.17;;
53835;SDS011;39737;43.334;21.936;2022-11-03T01:22:54;49.15;;;22.75;;
53835;SDS011;39737;43.334;21.936;2022-11-03T01:25:40;35.08;;;15.30;;
53835;SDS011;39737;43.334;21.936;2022-11-03T01:28:26;52.70;;;24.95;;
53835;SDS011;39737;43.334;21.936;2022-11-03T01:31:14;50.47;;;22.23;;
53835;SDS011;39737;43.334;21.936;2022-11-03T01:34:00;54.67;;;24.42;;
53835;SDS011;39737;43.334;21.936;2022-11-03T01:36:47;47.70;;;16.70;;
53835;SDS011;39737;43.334;21.936;2022-11-03T01:39:51;56.45;;;23.48;;
53835;SDS011;39737;43.334;21.936;2022-11-03T01:42:37;32.28;;;14.82;;
53835;SDS011;39737;43.334;21.936;2022-11-03T01:45:23;54.20;;;23.15;;
53835;SDS011;39737;43.334;21.936;2022-11-03T01:48:10;49.83;;;22.70;;
53835;SDS011;39737;43.334;21.936;2022-11-03T01:50:57;57.33;;;25.00;;
53835;SDS011;39737;43.334;21.936;2022-11-03T01:53:43;44.53;;;23.27;;
53835;SDS011;39737;43.334;21.936;2022-11-03T01:56:32;43.45;;;16.77;;
53835;SDS011;39737;43.334;21.936;2022-11-03T01:59:19;47.30;;;21.40;;
53835;SDS011;39737;43.334;21.936;2022-11-03T02:02:07;51.20;;;22.40;;
53835;SDS011;39737;43.334;21.936;2022-11-03T02:04:54;55.58;;;23.13;;
53835;SDS011;39737;43.334;21.936;2022-11-03T02:11:06;56.85;;;23.00;;
53835;SDS011;39737;43.334;21.936;2022-11-03T02:14:11;62.90;;;23.83;;
53835;SDS011;39737;43.334;21.936;2022-11-03T02:16:59;28.23;;;9.35;;
53835;SDS011;39737;43.334;21.936;2022-11-03T02:20:08;58.20;;;23.73;;
53835;SDS011;39737;43.334;21.936;2022-11-03T02:23:03;31.23;;;9.82;;
53835;SDS011;39737;43.334;21.936;2022-11-03T02:25:56;57.17;;;26.25;;
53835;SDS011;39737;43.334;21.936;2022-11-03T02:28:42;57.38;;;23.33;;
53835;SDS011;39737;43.334;21.936;2022-11-03T02:31:32;12.70;;;6.22;;
53835;SDS011;39737;43.334;21.936;2022-11-03T02:34:21;63.40;;;26.23;;
53835;SDS011;39737;43.334;21.936;2022-11-03T02:37:11;40.65;;;15.27;;
53835;SDS011;39737;43.334;21.936;2022-11-03T02:40:10;63.13;;;26.38;;
53835;SDS011;39737;43.334;21.936;2022-11-03T02:42:58;37.22;;;13.90;;
53835;SDS011;39737;43.334;21.936;2022-11-03T02:45:45;57.22;;;25.83;;
53835;SDS011;39737;43.334;21.936;2022-11-03T02:48:32;30.40;;;14.18;;
53835;SDS011;39737;43.334;21.936;2022-11-03T02:51:18;17.30;;;8.95;;
53835;SDS011;39737;43.334;21.936;2022-11-03T02:54:06;52.65;;;26.42;;
53835;SDS011;39737;43.334;21.936;2022-11-03T02:56:58;53.85;;;23.60;;
53835;SDS011;39737;43.334;21.936;2022-11-03T03:00:06;28.90;;;10.55;;
53835;SDS011;39737;43.334;21.936;2022-11-03T03:02:56;57.78;;;25.15;;
53835;SDS011;39737;43.334;21.936;2022-11-03T03:05:45;52.75;;;24.10;;
53835;SDS011;39737;43.334;21.936;2022-11-03T03:08:33;56.70;;;22.95;;
53835;SDS011;39737;43.334;21.936;2022-11-03T03:11:20;50.22;;;22.95;;
53835;SDS011;39737;43.334;21.936;2022-11-03T03:14:24;22.67;;;11.32;;
53835;SDS011;39737;43.334;21.936;2022-11-03T03:17:13;34.13;;;16.17;;
53835;SDS011;39737;43.334;21.936;2022-11-03T03:20:06;51.80;;;23.55;;
53835;SDS011;39737;43.334;21.936;2022-11-03T03:26:00;59.85;;;24.73;;
53835;SDS011;39737;43.334;21.936;2022-11-03T03:28:52;69.40;;;28.88;;
53835;SDS011;39737;43.334;21.936;2022-11-03T03:31:41;28.60;;;12.52;;
53835;SDS011;39737;43.334;21.936;2022-11-03T03:34:28;48.63;;;23.85;;
53835;SDS011;39737;43.334;21.936;2022-11-03T03:37:20;54.38;;;24.58;;
53835;SDS011;39737;43.334;21.936;2022-11-03T03:40:09;56.47;;;23.67;;
53835;SDS011;39737;43.334;21.936;2022-11-03T03:42:56;55.50;;;26.40;;
53835;SDS011;39737;43.334;21.936;2022-11-03T03:45:43;52.00;;;23.85;;
53835;SDS011;39737;43.334;21.936;2022-11-03T03:48:30;31.38;;;14.20;;
53835;SDS011;39737;43.334;21.936;2022-11-03T03:51:17;54.03;;;24.02;;
53835;SDS011;39737;43.334;21.936;2022-11-03T03:54:05;48.10;;;23.63;;
53835;SDS011;39737;43.334;21.936;2022-11-03T03:56:59;50.80;;;22.38;;
53835;SDS011;39737;43.334;21.936;2022-11-03T03:59:47;63.17;;;23.95;;
53835;SDS011;39737;43.334;21.936;2022-11-03T04:02:33;55.58;;;26.45;;
53835;SDS011;39737;43.334;21.936;2022-11-03T04:05:19;56.42;;;25.02;;
53835;SDS011;39737;43.334;21.936;2022-11-03T04:08:05;57.63;;;25.17;;
53835;SDS011;39737;43.334;21.936;2022-11-03T04:10:52;34.53;;;13.77;;
53835;SDS011;39737;43.334;21.936;2022-11-03T04:13:57;61.63;;;24.35;;
53835;SDS011;39737;43.334;21.936;2022-11-03T04:17:01;60.45;;;24.58;;
53835;SDS011;39737;43.334;21.936;2022-11-03T04:20:09;26.88;;;12.80;;
53835;SDS011;39737;43.334;21.936;2022-11-03T04:23:15;59.28;;;22.38;;
53835;SDS011;39737;43.334;21.936;2022-11-03T04:26:02;32.47;;;12.65;;
53835;SDS011;39737;43.334;21.936;2022-11-03T04:28:51;51.90;;;20.77;;
53835;SDS011;39737;43.334;21.936;2022-11-03T04:31:37;52.53;;;21.05;;
53835;SDS011;39737;43.334;21.936;2022-11-03T04:34:24;53.60;;;21.58;;
53835;SDS011;39737;43.334;21.936;2022-11-03T04:37:13;55.42;;;21.58;;
53835;SDS011;39737;43.334;21.936;2022-11-03T04:40:00;56.95;;;22.42;;
53835;SDS011;39737;43.334;21.936;2022-11-03T04:42:50;51.90;;;21.52;;
53835;SDS011;39737;43.334;21.936;2022-11-03T04:45:37;50.42;;;20.92;;
53835;SDS011;39737;43.334;21.936;2022-11-03T04:48:24;51.80;;;21.55;;
53835;SDS011;39737;43.334;21.936;2022-11-03T04:51:16;50.60;;;20.70;;
53835;SDS011;39737;43.334;21.936;2022-11-03T04:54:05;21.63;;;9.50;;
53835;SDS011;39737;43.334;21.936;2022-11-03T04:56:52;45.80;;;19.88;;
53835;SDS011;39737;43.334;21.936;2022-11-03T04:59:39;55.90;;;21.00;;
53835;SDS011;39737;43.334;21.936;2022-11-03T05:02:25;52.35;;;20.98;;
53835;SDS011;39737;43.334;21.936;2022-11-03T05:05:15;53.88;;;19.00;;
53835;SDS011;39737;43.334;21.936;2022-11-03T05:08:02;46.90;;;20.83;;
53835;SDS011;39737;43.334;21.936;2022-11-03T05:14:26;55.97;;;22.90;;
53835;SDS011;39737;43.334;21.936;2022-11-03T05:17:20;49.35;;;20.35;;
53835;SDS011;39737;43.334;21.936;2022-11-03T05:20:08;52.03;;;19.88;;
53835;SDS011;39737;43.334;21.936;2022-11-03T05:23:09;25.23;;;13.25;;
53835;SDS011;39737;43.334;21.936;2022-11-03T05:25:57;47.20;;;21.42;;
53835;SDS011;39737;43.334;21.936;2022-11-03T05:28:44;49.75;;;21.48;;
53835;SDS011;39737;43.334;21.936;2022-11-03T05:31:33;49.70;;;20.90;;
53835;SDS011;39737;43.334;21.936;2022-11-03T05:42:58;55.25;;;24.10;;
53835;SDS011;39737;43.334;21.936;2022-11-03T05:45:46;56.30;;;23.40;;
53835;SDS011;39737;43.334;21.936;2022-11-03T05:48:34;48.00;;;20.90;;
53835;SDS011;39737;43.334;21.936;2022-11-03T05:51:23;48.03;;;20.30;;
53835;SDS011;39737;43.334;21.936;2022-11-03T05:54:14;47.88;;;20.80;;
53835;SDS011;39737;43.334;21.936;2022-11-03T05:57:12;49.92;;;19.25;;
53835;SDS011;39737;43.334;21.936;2022-11-03T05:59:59;47.45;;;21.20;;
53835;SDS011;39737;43.334;21.936;2022-11-03T06:02:45;52.72;;;19.83;;
53835;SDS011;39737;43.334;21.936;2022-11-03T06:05:33;47.80;;;20.67;;
53835;SDS011;39737;43.334;21.936;2022-11-03T06:08:24;40.08;;;16.60;;
53835;SDS011;39737;43.334;21.936;2022-11-03T06:11:15;54.28;;;23.63;;
53835;SDS011;39737;43.334;21.936;2022-11-03T06:14:00;64.97;;;24.92;;
53835;SDS011;39737;43.334;21.936;2022-11-03T06:16:51;46.78;;;19.73;;
53835;SDS011;39737;43.334;21.936;2022-11-03T06:19:41;47.67;;;21.52;;
53835;SDS011;39737;43.334;21.936;2022-11-03T06:22:28;27.45;;;13.75;;
53835;SDS011;39737;43.334;21.936;2022-11-03T06:25:22;59.67;;;22.60;;
53835;SDS011;39737;43.334;21.936;2022-11-03T06:28:10;60.92;;;23.85;;
53835;SDS011;39737;43.334;21.936;2022-11-03T06:30:59;54.58;;;24.02;;
53835;SDS011;39737;43.334;21.936;2022-11-03T06:33:45;73.22;;;29.15;;
53835;SDS011;39737;43.334;21.936;2022-11-03T06:36:33;78.13;;;30.75;;
53835;SDS011;39737;43.334;21.936;2022-11-03T06:39:21;67.13;;;27.20;;
53835;SDS011;39737;43.334;21.936;2022-11-03T06:42:11;83.50;;;29.90;;
53835;SDS011;39737;43.334;21.936;2022-11-03T06:44:58;75.07;;;28.10;;
53835;SDS011;39737;43.334;21.936;2022-11-03T06:47:46;72.35;;;29.75;;
53835;SDS011;39737;43.334;21.936;2022-11-03T06:50:32;84.93;;;30.40;;
53835;SDS011;39737;43.334;21.936;2022-11-03T06:53:20;63.45;;;21.20;;
53835;SDS011;39737;43.334;21.936;2022-11-03T06:56:18;80.78;;;27.98;;
53835;SDS011;39737;43.334;21.936;2022-11-03T06:59:06;71.80;;;27.20;;
53835;SDS011;39737;43.334;21.936;2022-11-03T07:01:54;75.80;;;28.98;;
53835;SDS011;39737;43.334;21.936;2022-11-03T07:04:40;84.57;;;28.95;;
53835;SDS011;39737;43.334;21.936;2022-11-03T07:07:26;76.00;;;27.83;;
53835;SDS011;39737;43.334;21.936;2022-11-03T07:10:13;74.15;;;28.98;;
53835;SDS011;39737;43.334;21.936;2022-11-03T07:13:00;69.88;;;26.80;;
53835;SDS011;39737;43.334;21.936;2022-11-03T07:15:51;75.15;;;26.95;;
53835;SDS011;39737;43.334;21.936;2022-11-03T07:18:38;38.78;;;15.23;;
53835;SDS011;39737;43.334;21.936;2022-11-03T07:21:30;71.45;;;26.38;;
53835;SDS011;39737;43.334;21.936;2022-11-03T07:24:23;55.45;;;21.83;;
53835;SDS011;39737;43.334;21.936;2022-11-03T07:30:10;55.50;;;22.30;;
53835;SDS011;39737;43.334;21.936;2022-11-03T07:32:59;52.03;;;22.65;;
53835;SDS011;39737;43.334;21.936;2022-11-03T07:35:46;39.20;;;15.13;;
53835;SDS011;39737;43.334;21.936;2022-11-03T07:38:53;60.58;;;23.45;;
53835;SDS011;39737;43.334;21.936;2022-11-03T07:41:41;57.95;;;23.70;;
53835;SDS011;39737;43.334;21.936;2022-11-03T07:44:27;54.58;;;21.73;;
53835;SDS011;39737;43.334;21.936;2022-11-03T07:47:14;55.65;;;23.98;;
53835;SDS011;39737;43.334;21.936;2022-11-03T07:50:01;67.97;;;26.10;;
53835;SDS011;39737;43.334;21.936;2022-11-03T07:52:47;19.38;;;10.38;;
53835;SDS011;39737;43.334;21.936;2022-11-03T07:55:33;48.50;;;22.90;;
53835;SDS011;39737;43.334;21.936;2022-11-03T07:58:24;49.50;;;16.23;;
53835;SDS011;39737;43.334;21.936;2022-11-03T08:07:05;53.25;;;22.27;;
53835;SDS011;39737;43.334;21.936;2022-11-03T08:09:51;58.90;;;23.85;;
53835;SDS011;39737;43.334;21.936;2022-11-03T08:12:38;52.95;;;22.13;;
53835;SDS011;39737;43.334;21.936;2022-11-03T08:15:24;55.88;;;24.23;;
53835;SDS011;39737;43.334;21.936;2022-11-03T08:18:10;34.83;;;12.30;;
53835;SDS011;39737;43.334;21.936;2022-11-03T08:20:56;61.65;;;24.67;;
53835;SDS011;39737;43.334;21.936;2022-11-03T08:23:43;58.15;;;26.48;;
53835;SDS011;39737;43.334;21.936;2022-11-03T08:26:32;61.50;;;26.27;;
53835;SDS011;39737;43.334;21.936;2022-11-03T08:29:18;67.65;;;28.00;;
53835;SDS011;39737;43.334;21.936;2022-11-03T08:32:06;62.60;;;26.80;;
53835;SDS011;39737;43.334;21.936;2022-11-03T08:34:52;74.57;;;28.48;;
53835;SDS011;39737;43.334;21.936;2022-11-03T08:37:38;57.47;;;25.52;;
53835;SDS011;39737;43.334;21.936;2022-11-03T08:40:34;68.47;;;27.17;;
53835;SDS011;39737;43.334;21.936;2022-11-03T08:43:20;66.22;;;29.67;;
53835;SDS011;39737;43.334;21.936;2022-11-03T08:46:07;67.93;;;26.80;;
53835;SDS011;39737;43.334;21.936;2022-11-03T08:49:02;81.63;;;30.23;;
53835;SDS011;39737;43.334;21.936;2022-11-03T08:51:48;60.38;;;26.63;;
53835;SDS011;39737;43.334;21.936;2022-11-03T08:54:35;69.05;;;27.25;;
53835;SDS011;39737;43.334;21.936;2022-11-03T08:57:22;63.42;;;25.63;;
53835;SDS011;39737;43.334;21.936;2022-11-03T09:00:09;64.15;;;27.20;;
53835;SDS011;39737;43.334;21.936;2022-11-03T09:02:56;61.42;;;28.52;;
53835;SDS011;39737;43.334;21.936;2022-11-03T09:05:48;47.83;;;17.50;;
53835;SDS011;39737;43.334;21.936;2022-11-03T09:08:36;71.28;;;29.67;;
53835;SDS011;39737;43.334;21.936;2022-11-03T09:11:43;69.13;;;26.73;;
53835;SDS011;39737;43.334;21.936;2022-11-03T09:14:32;63.33;;;26.15;;
53835;SDS011;39737;43.334;21.936;2022-11-03T09:17:20;66.35;;;27.20;;
53835;SDS011;39737;43.334;21.936;2022-11-03T09:20:08;82.25;;;32.58;;
53835;SDS011;39737;43.334;21.936;2022-11-03T09:22:55;75.43;;;32.80;;
53835;SDS011;39737;43.334;21.936;2022-11-03T09:25:41;63.38;;;26.98;;
53835;SDS011;39737;43.334;21.936;2022-11-03T09:28:30;61.28;;;26.75;;
53835;SDS011;39737;43.334;21.936;2022-11-03T09:31:17;65.70;;;30.42;;
53835;SDS011;39737;43.334;21.936;2022-11-03T09:34:03;71.20;;;31.35;;
53835;SDS011;39737;43.334;21.936;2022-11-03T09:36:49;65.45;;;28.20;;
53835;SDS011;39737;43.334;21.936;2022-11-03T09:39:38;75.93;;;30.88;;
53835;SDS011;39737;43.334;21.936;2022-11-03T09:42:24;74.32;;;30.60;;
53835;SDS011;39737;43.334;21.936;2022-11-03T09:45:10;67.00;;;30.08;;
53835;SDS011;39737;43.334;21.936;2022-11-03T09:47:57;77.20;;;32.72;;
53835;SDS011;39737;43.334;21.936;2022-11-03T09:50:45;36.75;;;17.13;;
53835;SDS011;39737;43.334;21.936;2022-11-03T09:53:33;80.07;;;31.40;;
53835;SDS011;39737;43.334;21.936;2022-11-03T09:56:20;85.18;;;32.42;;
53835;SDS011;39737;43.334;21.936;2022-11-03T09:59:14;81.55;;;33.03;;
53835;SDS011;39737;43.334;21.936;2022-11-03T10:02:00;62.95;;;29.08;;
53835;SDS011;39737;43.334;21.936;2022-11-03T10:04:46;64.80;;;28.38;;
53835;SDS011;39737;43.334;21.936;2022-11-03T10:07:33;73.20;;;28.90;;
53835;SDS011;39737;43.334;21.936;2022-11-03T10:10:19;47.88;;;18.95;;
53835;SDS011;39737;43.334;21.936;2022-11-03T10:13:05;67.50;;;30.85;;
53835;SDS011;39737;43.334;21.936;2022-11-03T10:18:45;44.92;;;20.05;;
53835;SDS011;39737;43.334;21.936;2022-11-03T10:21:31;48.65;;;24.98;;
53835;SDS011;39737;43.334;21.936;2022-11-03T10:24:20;72.95;;;32.50;;
53835;SDS011;39737;43.334;21.936;2022-11-03T10:27:23;70.75;;;31.02;;
53835;SDS011;39737;43.334;21.936;2022-11-03T10:30:11;76.22;;;31.92;;
53835;SDS011;39737;43.334;21.936;2022-11-03T10:32:57;75.57;;;32.55;;
53835;SDS011;39737;43.334;21.936;2022-11-03T10:35:43;70.45;;;31.13;;
53835;SDS011;39737;43.334;21.936;2022-11-03T10:38:30;69.88;;;31.77;;
53835;SDS011;39737;43.334;21.936;2022-11-03T10:44:17;71.57;;;31.83;;
53835;SDS011;39737;43.334;21.936;2022-11-03T10:47:04;84.65;;;35.10;;
53835;SDS011;39737;43.334;21.936;2022-11-03T10:49:52;91.57;;;33.63;;
53835;SDS011;39737;43.334;21.936;2022-11-03T10:52:42;85.63;;;36.20;;
53835;SDS011;39737;43.334;21.936;2022-11-03T10:55:28;77.32;;;32.05;;
53835;SDS011;39737;43.334;21.936;2022-11-03T10:58:14;73.75;;;31.60;;
53835;SDS011;39737;43.334;21.936;2022-11-03T11:01:04;71.40;;;32.42;;
53835;SDS011;39737;43.334;21.936;2022-11-03T11:03:52;82.13;;;31.30;;
53835;SDS011;39737;43.334;21.936;2022-11-03T11:06:41;94.32;;;36.03;;
53835;SDS011;39737;43.334;21.936;2022-11-03T11:09:27;84.75;;;35.58;;
53835;SDS011;39737;43.334;21.936;2022-11-03T11:12:14;82.45;;;37.78;;
53835;SDS011;39737;43.334;21.936;2022-11-03T11:15:03;74.25;;;32.90;;
53835;SDS011;39737;43.334;21.936;2022-11-03T11:17:52;94.40;;;34.78;;
53835;SDS011;39737;43.334;21.936;2022-11-03T11:20:41;80.68;;;30.27;;
53835;SDS011;39737;43.334;21.936;2022-11-03T11:32:12;80.30;;;31.95;;
53835;SDS011;39737;43.334;21.936;2022-11-03T11:35:08;78.35;;;32.88;;
53835;SDS011;39737;43.334;21.936;2022-11-03T11:37:54;81.97;;;34.00;;
53835;SDS011;39737;43.334;21.936;2022-11-03T11:40:48;82.22;;;32.60;;
53835;SDS011;39737;43.334;21.936;2022-11-03T11:43:38;77.03;;;32.30;;
53835;SDS011;39737;43.334;21.936;2022-11-03T11:46:37;70.72;;;31.05;;
53835;SDS011;39737;43.334;21.936;2022-11-03T11:49:25;83.00;;;30.77;;
53835;SDS011;39737;43.334;21.936;2022-11-03T11:52:11;62.80;;;27.23;;
53835;SDS011;39737;43.334;21.936;2022-11-03T11:55:04;89.70;;;36.30;;
53835;SDS011;39737;43.334;21.936;2022-11-03T11:57:55;75.15;;;31.08;;
53835;SDS011;39737;43.334;21.936;2022-11-03T12:00:49;78.18;;;29.42;;
53835;SDS011;39737;43.334;21.936;2022-11-03T12:03:38;69.18;;;28.70;;
53835;SDS011;39737;43.334;21.936;2022-11-03T12:06:32;73.00;;;31.10;;
53835;SDS011;39737;43.334;21.936;2022-11-03T12:09:21;75.18;;;32.17;;
53835;SDS011;39737;43.334;21.936;2022-11-03T12:12:07;68.05;;;28.13;;
53835;SDS011;39737;43.334;21.936;2022-11-03T12:14:53;78.07;;;30.65;;
53835;SDS011;39737;43.334;21.936;2022-11-03T12:17:43;74.25;;;30.50;;
53835;SDS011;39737;43.334;21.936;2022-11-03T12:20:33;78.97;;;33.72;;
53835;SDS011;39737;43.334;21.936;2022-11-03T12:23:32;91.65;;;36.65;;
53835;SDS011;39737;43.334;21.936;2022-11-03T12:29:12;88.65;;;34.00;;
53835;SDS011;39737;43.334;21.936;2022-11-03T12:31:58;86.78;;;34.17;;
53835;SDS011;39737;43.334;21.936;2022-11-03T12:34:44;99.50;;;37.25;;
53835;SDS011;39737;43.334;21.936;2022-11-03T12:37:30;91.40;;;39.92;;
53835;SDS011;39737;43.334;21.936;2022-11-03T12:40:35;88.43;;;33.95;;
53835;SDS011;39737;43.334;21.936;2022-11-03T12:43:21;73.50;;;31.23;;
53835;SDS011;39737;43.334;21.936;2022-11-03T12:46:07;71.88;;;30.23;;
53835;SDS011;39737;43.334;21.936;2022-11-03T12:48:54;66.22;;;27.65;;
53835;SDS011;39737;43.334;21.936;2022-11-03T12:51:40;72.68;;;28.25;;
53835;SDS011;39737;43.334;21.936;2022-11-03T12:54:26;79.55;;;32.47;;
53835;SDS011;39737;43.334;21.936;2022-11-03T12:57:12;75.32;;;33.47;;
53835;SDS011;39737;43.334;21.936;2022-11-03T12:59:58;67.45;;;27.48;;
53835;SDS011;39737;43.334;21.936;2022-11-03T13:02:45;51.85;;;25.52;;
53835;SDS011;39737;43.334;21.936;2022-11-03T13:05:31;62.42;;;27.08;;
53835;SDS011;39737;43.334;21.936;2022-11-03T13:08:17;86.05;;;34.25;;
53835;SDS011;39737;43.334;21.936;2022-11-03T13:11:03;64.70;;;27.67;;
53835;SDS011;39737;43.334;21.936;2022-11-03T13:14:10;64.20;;;26.88;;
53835;SDS011;39737;43.334;21.936;2022-11-03T13:16:56;75.22;;;32.20;;
53835;SDS011;39737;43.334;21.936;2022-11-03T13:20:06;96.68;;;37.58;;
53835;SDS011;39737;43.334;21.936;2022-11-03T13:22:53;74.78;;;34.33;;
53835;SDS011;39737;43.334;21.936;2022-11-03T13:25:39;98.22;;;42.50;;
53835;SDS011;39737;43.334;21.936;2022-11-03T13:28:47;79.85;;;31.50;;
53835;SDS011;39737;43.334;21.936;2022-11-03T13:31:35;55.58;;;23.73;;
53835;SDS011;39737;43.334;21.936;2022-11-03T13:34:21;73.57;;;29.30;;
53835;SDS011;39737;43.334;21.936;2022-11-03T13:37:08;70.15;;;29.60;;
53835;SDS011;39737;43.334;21.936;2022-11-03T13:39:54;87.35;;;34.45;;
53835;SDS011;39737;43.334;21.936;2022-11-03T13:42:40;66.03;;;31.63;;
53835;SDS011;39737;43.334;21.936;2022-11-03T13:45:26;109.47;;;40.60;;
53835;SDS011;39737;43.334;21.936;2022-11-03T13:48:13;74.95;;;32.05;;
53835;SDS011;39737;43.334;21.936;2022-11-03T13:51:19;84.15;;;37.75;;
53835;SDS011;39737;43.334;21.936;2022-11-03T13:54:06;63.65;;;27.05;;
53835;SDS011;39737;43.334;21.936;2022-11-03T13:57:13;58.72;;;26.33;;
53835;SDS011;39737;43.334;21.936;2022-11-03T14:00:19;85.30;;;36.53;;
53835;SDS011;39737;43.334;21.936;2022-11-03T14:03:05;88.45;;;33.90;;
53835;SDS011;39737;43.334;21.936;2022-11-03T14:06:11;84.60;;;37.95;;
53835;SDS011;39737;43.334;21.936;2022-11-03T14:08:58;69.45;;;32.53;;
53835;SDS011;39737;43.334;21.936;2022-11-03T14:11:44;78.30;;;35.42;;
53835;SDS011;39737;43.334;21.936;2022-11-03T14:14:49;88.85;;;37.80;;
53835;SDS011;39737;43.334;21.936;2022-11-03T14:17:35;92.40;;;39.55;;
53835;SDS011;39737;43.334;21.936;2022-11-03T14:20:21;83.93;;;35.30;;
53835;SDS011;39737;43.334;21.936;2022-11-03T14:23:07;70.97;;;34.33;;
53835;SDS011;39737;43.334;21.936;2022-11-03T14:25:53;92.45;;;39.90;;
53835;SDS011;39737;43.334;21.936;2022-11-03T14:28:59;96.43;;;40.60;;
53835;SDS011;39737;43.334;21.936;2022-11-03T14:31:45;88.07;;;38.72;;
53835;SDS011;39737;43.334;21.936;2022-11-03T14:34:32;87.80;;;36.58;;
53835;SDS011;39737;43.334;21.936;2022-11-03T14:37:18;77.53;;;36.10;;
53835;SDS011;39737;43.334;21.936;2022-11-03T14:40:06;88.72;;;40.60;;
53835;SDS011;39737;43.334;21.936;2022-11-03T14:43:34;101.03;;;40.95;;
53835;SDS011;39737;43.334;21.936;2022-11-03T14:46:20;89.97;;;41.92;;
53835;SDS011;39737;43.334;21.936;2022-11-03T14:49:07;86.45;;;37.25;;
53835;SDS011;39737;43.334;21.936;2022-11-03T14:51:53;79.80;;;37.55;;
53835;SDS011;39737;43.334;21.936;2022-11-03T14:54:41;79.35;;;36.78;;
53835;SDS011;39737;43.334;21.936;2022-11-03T14:57:27;87.30;;;38.03;;
53835;SDS011;39737;43.334;21.936;2022-11-03T15:00:14;78.00;;;35.00;;
53835;SDS011;39737;43.334;21.936;2022-11-03T15:03:00;65.43;;;33.28;;
53835;SDS011;39737;43.334;21.936;2022-11-03T15:05:46;88.72;;;38.88;;
53835;SDS011;39737;43.334;21.936;2022-11-03T15:08:33;83.53;;;37.30;;
53835;SDS011;39737;43.334;21.936;2022-11-03T15:11:19;85.38;;;36.35;;
53835;SDS011;39737;43.334;21.936;2022-11-03T15:14:05;124.57;;;47.80;;
53835;SDS011;39737;43.334;21.936;2022-11-03T15:16:51;215.63;;;75.43;;
53835;SDS011;39737;43.334;21.936;2022-11-03T15:19:39;187.13;;;67.70;;
53835;SDS011;39737;43.334;21.936;2022-11-03T15:22:26;125.55;;;51.65;;
53835;SDS011;39737;43.334;21.936;2022-11-03T15:25:32;90.47;;;38.65;;
53835;SDS011;39737;43.334;21.936;2022-11-03T15:28:21;94.43;;;36.58;;
53835;SDS011;39737;43.334;21.936;2022-11-03T15:31:07;76.75;;;34.03;;
53835;SDS011;39737;43.334;21.936;2022-11-03T15:33:53;82.25;;;33.58;;
53835;SDS011;39737;43.334;21.936;2022-11-03T15:36:39;75.95;;;33.25;;
53835;SDS011;39737;43.334;21.936;2022-11-03T15:39:25;82.18;;;35.10;;
53835;SDS011;39737;43.334;21.936;2022-11-03T15:42:14;76.20;;;31.77;;
53835;SDS011;39737;43.334;21.936;2022-11-03T15:45:01;74.50;;;30.58;;
53835;SDS011;39737;43.334;21.936;2022-11-03T15:47:47;65.13;;;28.50;;
53835;SDS011;39737;43.334;21.936;2022-11-03T15:50:33;66.72;;;26.10;;
53835;SDS011;39737;43.334;21.936;2022-11-03T15:53:20;61.28;;;27.70;;
53835;SDS011;39737;43.334;21.936;2022-11-03T15:56:06;105.70;;;45.17;;
53835;SDS011;39737;43.334;21.936;2022-11-03T15:58:53;70.25;;;31.83;;
53835;SDS011;39737;43.334;21.936;2022-11-03T16:01:39;78.63;;;32.30;;
53835;SDS011;39737;43.334;21.936;2022-11-03T16:04:44;68.45;;;27.73;;
53835;SDS011;39737;43.334;21.936;2022-11-03T16:07:30;76.90;;;31.00;;
53835;SDS011;39737;43.334;21.936;2022-11-03T16:10:17;78.07;;;30.60;;
53835;SDS011;39737;43.334;21.936;2022-11-03T16:13:03;64.85;;;28.88;;
53835;SDS011;39737;43.334;21.936;2022-11-03T16:15:49;62.85;;;28.08;;
53835;SDS011;39737;43.334;21.936;2022-11-03T16:18:36;85.38;;;34.33;;
53835;SDS011;39737;43.334;21.936;2022-11-03T16:21:23;103.20;;;40.22;;
53835;SDS011;39737;43.334;21.936;2022-11-03T16:24:10;70.75;;;34.35;;
53835;SDS011;39737;43.334;21.936;2022-11-03T16:26:56;75.35;;;32.63;;
53835;SDS011;39737;43.334;21.936;2022-11-03T16:29:42;76.60;;;32.40;;
53835;SDS011;39737;43.334;21.936;2022-11-03T16:32:29;99.30;;;41.88;;
53835;SDS011;39737;43.334;21.936;2022-11-03T16:35:15;52.78;;;23.05;;
53835;SDS011;39737;43.334;21.936;2022-11-03T16:38:01;104.60;;;42.63;;
53835;SDS011;39737;43.334;21.936;2022-11-03T16:40:48;74.72;;;33.33;;
53835;SDS011;39737;43.334;21.936;2022-11-03T16:43:34;76.68;;;33.60;;
53835;SDS011;39737;43.334;21.936;2022-11-03T16:46:20;75.82;;;36.05;;
53835;SDS011;39737;43.334;21.936;2022-11-03T16:49:06;90.65;;;38.45;;
53835;SDS011;39737;43.334;21.936;2022-11-03T16:51:53;90.97;;;40.33;;
53835;SDS011;39737;43.334;21.936;2022-11-03T16:54:39;138.50;;;56.33;;
53835;SDS011;39737;43.334;21.936;2022-11-03T16:57:28;95.38;;;42.53;;
53835;SDS011;39737;43.334;21.936;2022-11-03T17:00:15;127.28;;;53.83;;